createdAt,value
2022-09-05T00:00:31.280Z,3.75
2022-09-05T00:03:18.357Z,4.38
2022-09-05T00:06:02.760Z,4.43
2022-09-05T00:08:45.386Z,4.35
2022-09-05T00:11:40.917Z,3.95
2022-09-05T00:15:17.055Z,4.47
2022-09-05T00:18:22.690Z,3.70
2022-09-05T00:24:28.797Z,4.25
2022-09-05T00:24:35.592Z,3.88
2022-09-05T00:26:52.646Z,4.75
2022-09-05T00:31:05.319Z,4.10
2022-09-05T00:32:43.977Z,4.75
2022-09-05T00:35:43.651Z,5.30
2022-09-05T00:38:16.342Z,5.70
2022-09-05T00:40:49.653Z,4.60
2022-09-05T00:43:24.301Z,5.45
2022-09-05T00:46:00.006Z,4.78
2022-09-05T00:48:39.336Z,5.72
2022-09-05T00:51:28.634Z,4.30
2022-09-05T00:54:48.272Z,5.07
2022-09-05T00:57:54.430Z,5.40
2022-09-05T01:00:35.108Z,4.40
2022-09-05T01:03:33.304Z,5.07
2022-09-05T01:06:16.563Z,4.75
2022-09-05T01:09:22.660Z,5.63
2022-09-05T01:12:07.573Z,5.78
2022-09-05T01:15:14.547Z,5.13
2022-09-05T01:18:20.527Z,5.47
2022-09-05T01:21:14.041Z,5.35
2022-09-05T01:24:27.665Z,5.80
2022-09-05T01:29:14.250Z,4.78
2022-09-05T01:30:44.818Z,4.93
2022-09-05T01:33:28.457Z,6.65
2022-09-05T01:36:27.377Z,4.57
2022-09-05T01:40:10.446Z,6.72
2022-09-05T01:42:02.207Z,5.28
2022-09-05T01:44:56.306Z,5.97
2022-09-05T01:47:38.245Z,5.43
2022-09-05T01:50:28.640Z,5.35
2022-09-05T01:53:25.580Z,4.93
2022-09-05T01:56:35.360Z,5.75
2022-09-05T01:59:20.926Z,5.93
2022-09-05T02:02:37.517Z,5.10
2022-09-05T02:05:51.893Z,5.63
2022-09-05T02:08:39.602Z,5.30
2022-09-05T02:11:12.330Z,5.70
2022-09-05T02:14:06.085Z,6.70
2022-09-05T02:16:45.054Z,4.55
2022-09-05T02:19:23.348Z,5.32
2022-09-05T02:22:02.534Z,5.70
2022-09-05T02:24:39.029Z,5.53
2022-09-05T02:28:03.637Z,5.22
2022-09-05T02:30:17.379Z,4.72
2022-09-05T02:33:13.732Z,4.72
2022-09-05T02:35:49.491Z,5.80
2022-09-05T02:40:45.980Z,5.75
2022-09-05T02:45:07.124Z,5.65
2022-09-05T02:45:09.269Z,4.93
2022-09-05T02:47:22.553Z,5.43
2022-09-05T02:51:45.036Z,6.30
2022-09-05T02:57:25.031Z,6.05
2022-09-05T02:58:04.665Z,5.35
2022-09-05T02:59:47.572Z,5.80
2022-09-05T03:02:28.252Z,4.95
2022-09-05T03:05:05.792Z,5.00
2022-09-05T03:08:08.884Z,5.50
2022-09-05T03:11:29.543Z,4.95
2022-09-05T03:14:54.482Z,4.93
2022-09-05T03:18:31.354Z,6.80
2022-09-05T03:21:39.681Z,5.07
2022-09-05T03:25:17.794Z,5.53
2022-09-05T03:28:52.896Z,6.03
2022-09-05T03:32:06.802Z,6.15
2022-09-05T03:35:17.306Z,5.80
2022-09-05T03:38:22.952Z,5.00
2022-09-05T03:41:18.947Z,4.65
2022-09-05T03:44:16.082Z,5.13
2022-09-05T03:47:13.554Z,5.35
2022-09-05T03:57:04.295Z,5.40
2022-09-05T03:57:15.713Z,5.30
2022-09-05T03:57:42.741Z,6.07
2022-09-05T04:00:22.229Z,5.30
2022-09-05T04:08:10.906Z,5.97
2022-09-05T04:08:25.372Z,6.60
2022-09-05T04:09:11.004Z,6.22
2022-09-05T04:11:46.117Z,6.95
2022-09-05T04:14:25.552Z,6.82
2022-09-05T04:16:59.482Z,7.30
2022-09-05T04:19:36.251Z,7.03
2022-09-05T04:22:20.541Z,6.85
2022-09-05T04:25:00.479Z,6.65
2022-09-05T04:27:46.817Z,7.47
2022-09-05T04:30:38.984Z,6.78
2022-09-05T04:33:33.500Z,6.97
2022-09-05T04:36:23.387Z,7.72
2022-09-05T04:39:10.061Z,7.25
2022-09-05T04:41:44.416Z,7.97
2022-09-05T04:44:17.361Z,6.72
2022-09-05T04:46:53.638Z,8.63
2022-09-05T04:49:28.494Z,9.20
2022-09-05T04:52:45.425Z,7.38
2022-09-05T04:55:18.586Z,7.07
2022-09-05T04:57:54.804Z,8.13
2022-09-05T05:06:03.838Z,6.78
2022-09-05T05:06:11.900Z,6.43
2022-09-05T05:06:36.774Z,7.45
2022-09-05T05:09:18.831Z,6.90
2022-09-05T05:17:55.434Z,8.15
2022-09-05T05:18:07.470Z,8.10
2022-09-05T05:18:08.630Z,7.80
2022-09-05T05:20:51.278Z,6.60
2022-09-05T05:23:30.280Z,6.75
2022-09-05T05:26:02.989Z,7.05
2022-09-05T05:28:53.766Z,7.28
2022-09-05T05:31:28.031Z,7.05
2022-09-05T05:34:03.933Z,6.72
2022-09-05T05:37:02.912Z,8.18
2022-09-05T05:39:35.065Z,6.85
2022-09-05T05:42:19.360Z,6.25
2022-09-05T05:44:53.825Z,6.75
2022-09-05T05:47:31.891Z,7.22
2022-09-05T05:50:11.412Z,6.45
2022-09-05T05:53:31.992Z,7.60
2022-09-05T05:56:22.507Z,6.32
2022-09-05T05:59:11.344Z,5.45
2022-09-05T06:02:24.180Z,6.13
2022-09-05T06:05:46.695Z,6.25
2022-09-05T06:14:55.252Z,6.50
2022-09-05T06:15:02.949Z,7.65
2022-09-05T06:17:06.122Z,6.18
2022-09-05T06:22:04.998Z,6.78
2022-09-05T06:24:09.386Z,6.65
2022-09-05T06:27:10.362Z,7.13
2022-09-05T06:29:57.020Z,7.30
2022-09-05T06:32:46.804Z,7.45
2022-09-05T06:35:35.281Z,6.22
2022-09-05T06:38:27.320Z,6.70
2022-09-05T06:41:19.837Z,7.70
2022-09-05T06:44:47.940Z,6.68
2022-09-05T06:47:33.376Z,6.00
2022-09-05T06:50:27.146Z,8.13
2022-09-05T06:53:42.496Z,7.90
2022-09-05T06:56:59.710Z,7.22
2022-09-05T07:00:21.698Z,6.60
2022-09-05T07:03:18.419Z,6.32
2022-09-05T07:05:56.761Z,5.75
2022-09-05T07:08:37.670Z,5.90
2022-09-05T07:11:16.792Z,6.68
2022-09-05T07:14:02.702Z,6.55
2022-09-05T07:16:47.449Z,5.63
2022-09-05T07:19:27.480Z,5.43
2022-09-05T07:22:45.915Z,5.30
2022-09-05T07:25:09.578Z,5.32
2022-09-05T07:28:25.882Z,5.93
2022-09-05T07:30:35.145Z,6.70
2022-09-05T07:33:06.247Z,6.10
2022-09-05T07:35:41.952Z,5.50
2022-09-05T07:38:16.400Z,7.10
2022-09-05T07:40:54.360Z,5.82
2022-09-05T07:43:28.079Z,5.13
2022-09-05T07:46:11.753Z,6.55
2022-09-05T07:48:48.059Z,7.15
2022-09-05T07:56:50.856Z,7.38
2022-09-05T07:57:09.946Z,7.20
2022-09-05T07:57:25.558Z,7.15
2022-09-05T08:00:08.083Z,7.80
2022-09-05T08:02:54.985Z,7.38
2022-09-05T08:05:35.143Z,8.18
2022-09-05T08:08:09.896Z,6.70
2022-09-05T08:11:24.808Z,6.82
2022-09-05T08:14:40.428Z,5.88
2022-09-05T08:16:54.773Z,7.50
2022-09-05T08:19:50.535Z,6.18
2022-09-05T08:22:25.259Z,7.00
2022-09-05T08:25:04.673Z,7.05
2022-09-05T08:27:45.738Z,6.53
2022-09-05T08:30:25.617Z,6.90
2022-09-05T08:33:11.078Z,5.43
2022-09-05T08:35:45.362Z,5.88
2022-09-05T08:38:17.191Z,6.80
2022-09-05T08:40:54.705Z,5.40
2022-09-05T08:46:35.274Z,6.03
2022-09-05T08:46:43.071Z,5.95
2022-09-05T08:49:45.546Z,5.90
2022-09-05T08:52:26.337Z,5.72
2022-09-05T08:55:10.855Z,5.50
2022-09-05T08:58:20.177Z,5.13
2022-09-05T09:01:00.254Z,5.78
2022-09-05T09:03:35.617Z,5.13
2022-09-05T09:07:30.757Z,5.38
2022-09-05T09:09:55.486Z,4.97
2022-09-05T09:13:08.690Z,4.35
2022-09-05T09:15:42.188Z,4.55
2022-09-05T09:18:16.207Z,3.78
2022-09-05T09:20:53.501Z,4.55
2022-09-05T09:23:47.650Z,5.38
2022-09-05T09:26:18.566Z,4.55
2022-09-05T09:28:55.479Z,3.85
2022-09-05T09:31:38.892Z,4.18
2022-09-05T09:34:53.377Z,5.03
2022-09-05T09:37:59.695Z,4.32
2022-09-05T09:41:09.666Z,4.28
2022-09-05T09:44:11.633Z,4.03
2022-09-05T09:46:44.631Z,4.40
2022-09-05T09:49:39.297Z,3.78
2022-09-05T09:52:46.194Z,4.13
2022-09-05T09:56:00.363Z,4.43
2022-09-05T09:59:24.002Z,4.07
2022-09-05T10:02:34.184Z,3.47
2022-09-05T10:10:55.364Z,4.28
2022-09-05T10:10:57.757Z,4.35
2022-09-05T10:12:10.197Z,3.35
2022-09-05T10:15:30.379Z,3.08
2022-09-05T10:18:24.084Z,3.50
2022-09-05T10:21:17.847Z,4.35
2022-09-05T10:24:54.760Z,4.25
2022-09-05T10:27:39.193Z,3.60
2022-09-05T10:30:57.387Z,3.03
2022-09-05T10:35:15.319Z,3.17
2022-09-05T10:36:25.965Z,3.55
2022-09-05T10:39:07.998Z,3.92
2022-09-05T10:41:50.149Z,4.28
2022-09-05T10:44:33.970Z,3.80
2022-09-05T10:47:19.425Z,4.13
2022-09-05T10:49:51.695Z,3.97
2022-09-05T10:52:34.014Z,4.45
2022-09-05T10:55:18.907Z,4.07
2022-09-05T10:58:01.916Z,3.90
2022-09-05T11:02:26.037Z,4.45
2022-09-05T11:03:56.643Z,4.05
2022-09-05T11:06:50.921Z,3.70
2022-09-05T11:09:45.650Z,4.28
2022-09-05T11:12:32.974Z,4.78
2022-09-05T11:15:06.492Z,3.72
2022-09-05T11:17:43.844Z,4.22
2022-09-05T11:20:47.632Z,4.28
2022-09-05T11:23:23.164Z,3.40
2022-09-05T11:26:04.523Z,4.40
2022-09-05T11:29:00.238Z,4.90
2022-09-05T11:32:04.255Z,5.20
2022-09-05T11:40:06.815Z,3.75
2022-09-05T11:40:08.820Z,4.00
2022-09-05T11:42:25.702Z,3.88
2022-09-05T11:46:08.828Z,3.75
2022-09-05T11:49:14.747Z,3.90
2022-09-05T11:52:36.210Z,4.93
2022-09-05T11:56:01.367Z,3.83
2022-09-05T11:59:08.119Z,3.35
2022-09-05T12:01:47.628Z,3.70
2022-09-05T12:05:49.921Z,4.10
2022-09-05T12:07:57.571Z,3.70
2022-09-05T12:10:46.989Z,3.75
2022-09-05T12:13:42.642Z,3.75
2022-09-05T12:16:54.624Z,3.78
2022-09-05T12:19:34.535Z,3.88
2022-09-05T12:22:29.882Z,3.45
2022-09-05T12:27:38.358Z,3.95
2022-09-05T12:29:27.409Z,4.07
2022-09-05T12:32:50.296Z,3.80
2022-09-05T12:36:04.141Z,3.88
2022-09-05T12:40:54.087Z,3.42
2022-09-05T12:41:34.386Z,3.67
2022-09-05T12:44:38.963Z,3.83
2022-09-05T12:46:00.692Z,3.65
2022-09-05T12:48:39.332Z,4.03
2022-09-05T12:51:44.779Z,3.45
2022-09-05T12:54:24.369Z,3.67
2022-09-05T13:02:25.041Z,3.75
2022-09-05T13:03:05.043Z,3.22
2022-09-05T13:03:07.543Z,3.58
2022-09-05T13:05:53.252Z,2.70
2022-09-05T13:08:25.565Z,3.13
2022-09-05T13:14:46.290Z,3.47
2022-09-05T13:14:58.635Z,3.55
2022-09-05T13:16:49.234Z,3.53
2022-09-05T13:19:34.364Z,3.20
2022-09-05T13:22:04.843Z,3.70
2022-09-05T13:24:41.576Z,3.95
2022-09-05T13:27:16.245Z,3.63
2022-09-05T13:31:45.369Z,3.22
2022-09-05T13:38:03.378Z,3.65
2022-09-05T13:38:05.047Z,3.63
2022-09-05T13:38:50.210Z,3.80
2022-09-05T13:41:28.628Z,3.20
2022-09-05T13:44:00.617Z,3.15
2022-09-05T13:46:58.497Z,3.33
2022-09-05T13:49:33.416Z,3.13
2022-09-05T13:52:29.102Z,3.67
2022-09-05T13:55:22.429Z,4.18
2022-09-05T13:57:58.704Z,2.90
2022-09-05T14:01:30.266Z,3.55
2022-09-05T14:08:20.468Z,3.13
2022-09-05T14:11:47.868Z,2.35
2022-09-05T14:17:54.291Z,2.92
2022-09-05T14:20:49.831Z,3.50
2022-09-05T14:23:24.936Z,2.55
2022-09-05T14:26:00.063Z,3.03
2022-09-05T14:28:38.812Z,2.78
2022-09-05T14:33:31.119Z,3.00
2022-09-05T14:37:48.159Z,2.70
2022-09-05T14:38:00.544Z,2.60
2022-09-05T14:41:23.616Z,2.70
2022-09-05T14:44:42.361Z,2.50
2022-09-05T14:47:54.009Z,3.05
2022-09-05T14:50:54.281Z,2.35
2022-09-05T14:59:51.129Z,2.35
2022-09-05T15:02:41.619Z,2.47
2022-09-05T15:02:58.031Z,2.60
2022-09-05T15:05:35.798Z,2.25
2022-09-05T15:08:55.340Z,2.35
2022-09-05T15:12:17.099Z,2.80
2022-09-05T15:14:03.834Z,1.88
2022-09-05T15:16:35.704Z,2.45
2022-09-05T15:19:04.341Z,2.70
2022-09-05T15:21:38.213Z,2.58
2022-09-05T15:24:19.268Z,2.78
2022-09-05T15:26:53.418Z,3.35
2022-09-05T15:29:26.827Z,2.95
2022-09-05T15:32:14.674Z,2.70
2022-09-05T15:34:43.272Z,2.38
2022-09-05T15:37:30.337Z,2.83
2022-09-05T15:40:23.345Z,3.80
2022-09-05T15:42:56.246Z,2.42
2022-09-05T15:45:29.883Z,2.95
2022-09-05T15:48:16.468Z,2.60
2022-09-05T15:50:50.309Z,2.55
2022-09-05T15:53:26.140Z,3.08
2022-09-05T15:56:01.112Z,2.75
2022-09-05T15:58:52.810Z,2.13
2022-09-05T16:01:59.057Z,2.88
2022-09-05T16:08:34.122Z,2.38
2022-09-05T16:10:35.759Z,2.70
2022-09-05T16:10:48.665Z,2.58
2022-09-05T16:13:14.038Z,2.53
2022-09-05T16:23:11.697Z,2.70
2022-09-05T16:23:18.147Z,2.95
2022-09-05T16:23:34.271Z,2.65
2022-09-05T16:24:38.594Z,2.35
2022-09-05T16:27:43.877Z,3.72
2022-09-05T16:30:20.922Z,2.97
2022-09-05T16:32:51.827Z,2.25
2022-09-05T16:35:24.974Z,3.90
2022-09-05T16:38:06.929Z,2.28
2022-09-05T16:40:40.146Z,2.70
2022-09-05T16:43:14.091Z,2.65
2022-09-05T16:45:51.866Z,3.15
2022-09-05T16:48:43.494Z,2.33
2022-09-05T16:51:35.914Z,2.53
2022-09-05T16:54:13.911Z,2.45
2022-09-05T16:56:46.752Z,2.90
2022-09-05T16:59:21.347Z,4.22
2022-09-05T17:02:09.004Z,2.72
2022-09-05T17:05:03.146Z,2.33
2022-09-05T17:07:57.710Z,2.20
2022-09-05T17:10:31.822Z,2.08
2022-09-05T17:13:00.994Z,2.63
2022-09-05T17:15:36.169Z,2.38
2022-09-05T17:18:21.676Z,2.72
2022-09-05T17:21:01.487Z,2.65
2022-09-05T17:29:20.889Z,2.85
2022-09-05T17:29:26.225Z,2.53
2022-09-05T17:31:25.228Z,1.92
2022-09-05T17:32:48.563Z,2.00
2022-09-05T17:35:57.011Z,2.75
2022-09-05T17:39:03.942Z,2.55
2022-09-05T17:42:02.305Z,2.90
2022-09-05T17:44:53.154Z,2.55
2022-09-05T17:47:28.863Z,2.53
2022-09-05T17:50:51.215Z,2.40
2022-09-05T17:53:25.630Z,3.53
2022-09-05T17:56:14.553Z,3.33
2022-09-05T17:59:08.288Z,2.67
2022-09-05T18:01:37.442Z,2.47
2022-09-05T18:04:16.167Z,2.90
2022-09-05T18:06:59.728Z,2.13
2022-09-05T18:10:11.867Z,2.72
2022-09-05T18:16:12.838Z,2.88
2022-09-05T18:19:32.574Z,4.18
2022-09-05T18:21:54.247Z,2.50
2022-09-05T18:24:36.165Z,2.88
2022-09-05T18:27:44.014Z,2.50
2022-09-05T18:30:28.555Z,3.55
2022-09-05T18:34:03.302Z,3.38
2022-09-05T18:36:35.277Z,3.83
2022-09-05T18:39:43.488Z,3.30
2022-09-05T18:42:33.435Z,2.80
2022-09-05T18:45:14.661Z,3.42
2022-09-05T18:47:50.947Z,3.35
2022-09-05T18:50:28.344Z,3.00
2022-09-05T18:53:08.711Z,3.42
2022-09-05T18:56:12.843Z,2.95
2022-09-05T18:58:52.065Z,3.30
2022-09-05T19:01:38.812Z,3.25
2022-09-05T19:04:40.415Z,3.38
2022-09-05T19:07:11.793Z,3.58
2022-09-05T19:10:03.627Z,3.60
2022-09-05T19:12:55.025Z,3.70
2022-09-05T19:15:26.501Z,3.28
2022-09-05T19:18:03.647Z,4.03
2022-09-05T19:21:16.721Z,3.50
2022-09-05T19:23:54.935Z,3.30
2022-09-05T19:26:24.758Z,3.33
2022-09-05T19:35:45.437Z,2.83
2022-09-05T19:36:55.345Z,3.05
2022-09-05T19:37:13.757Z,3.58
2022-09-05T19:37:46.416Z,3.38
2022-09-05T19:47:28.265Z,3.15
2022-09-05T19:47:35.660Z,3.72
2022-09-05T19:47:43.622Z,3.35
2022-09-05T19:49:08.835Z,2.60
2022-09-05T19:51:39.320Z,3.03
2022-09-05T19:54:09.071Z,3.92
2022-09-05T19:56:41.466Z,3.50
2022-09-05T19:59:22.763Z,2.63
2022-09-05T20:01:53.392Z,3.25
2022-09-05T20:04:23.149Z,3.15
2022-09-05T20:06:52.044Z,2.95
2022-09-05T20:09:23.745Z,3.25
2022-09-05T20:11:54.410Z,3.33
2022-09-05T20:14:26.898Z,3.50
2022-09-05T20:17:01.458Z,2.78
2022-09-05T20:19:34.073Z,3.28
2022-09-05T20:22:24.266Z,3.88
2022-09-05T20:24:57.028Z,4.05
2022-09-05T20:27:29.935Z,3.28
2022-09-05T20:30:01.881Z,3.33
2022-09-05T20:32:39.866Z,3.03
2022-09-05T20:42:15.739Z,2.22
2022-09-05T20:43:19.344Z,3.40
2022-09-05T20:43:27.434Z,3.65
2022-09-05T20:44:01.587Z,2.70
2022-09-05T20:51:15.622Z,3.13
2022-09-05T20:54:10.094Z,3.35
2022-09-05T20:54:21.353Z,3.22
2022-09-05T20:55:41.814Z,3.33
2022-09-05T20:58:13.843Z,3.28
2022-09-05T21:01:20.370Z,3.95
2022-09-05T21:03:41.583Z,3.10
2022-09-05T21:06:24.682Z,2.85
2022-09-05T21:08:56.035Z,3.30
2022-09-05T21:11:33.792Z,2.72
2022-09-05T21:14:05.676Z,3.20
2022-09-05T21:16:43.886Z,3.38
2022-09-05T21:19:25.212Z,4.00
2022-09-05T21:22:06.942Z,3.13
2022-09-05T21:24:36.231Z,2.53
2022-09-05T21:27:17.945Z,3.72
2022-09-05T21:29:53.046Z,4.20
2022-09-05T21:32:37.970Z,3.00
2022-09-05T21:35:33.787Z,4.03
2022-09-05T21:38:02.685Z,3.40
2022-09-05T21:40:31.230Z,3.53
2022-09-05T21:47:29.446Z,2.97
2022-09-05T21:47:48.295Z,3.35
2022-09-05T21:48:37.863Z,3.35
2022-09-05T21:51:10.095Z,3.28
2022-09-05T21:59:13.185Z,3.53
2022-09-05T21:59:26.234Z,2.78
2022-09-05T21:59:38.836Z,4.32
2022-09-05T22:02:17.332Z,3.65
2022-09-05T22:04:47.278Z,2.88
2022-09-05T22:07:26.383Z,4.05
2022-09-05T22:10:04.555Z,3.75
2022-09-05T22:12:36.078Z,3.53
2022-09-05T22:15:27.673Z,2.78
2022-09-05T22:18:17.777Z,3.22
2022-09-05T22:21:26.820Z,3.03
2022-09-05T22:23:41.342Z,2.83
2022-09-05T22:26:11.234Z,3.50
2022-09-05T22:28:48.733Z,3.55
2022-09-05T22:31:18.197Z,3.53
2022-09-05T22:33:51.295Z,3.20
2022-09-05T22:36:26.830Z,3.63
2022-09-05T22:38:55.733Z,3.13
2022-09-05T22:41:30.306Z,4.05
2022-09-05T22:43:59.631Z,4.28
2022-09-05T22:46:28.272Z,4.05
2022-09-05T22:48:56.882Z,2.95
2022-09-05T22:51:25.476Z,3.90
2022-09-05T22:53:53.871Z,3.42
2022-09-05T22:56:36.327Z,3.40
2022-09-05T22:59:05.925Z,3.28
2022-09-05T23:01:35.018Z,3.60
2022-09-05T23:04:04.210Z,3.60
2022-09-05T23:06:33.039Z,3.45
2022-09-05T23:09:01.600Z,4.18
2022-09-05T23:11:31.988Z,3.17
2022-09-05T23:14:00.381Z,3.08
2022-09-05T23:16:29.024Z,3.30
2022-09-05T23:18:57.989Z,3.53
2022-09-05T23:21:26.471Z,3.88
2022-09-05T23:23:54.848Z,3.28
2022-09-05T23:26:23.533Z,3.90
2022-09-05T23:28:53.554Z,3.30
2022-09-05T23:31:22.101Z,3.30
2022-09-05T23:33:51.236Z,3.83
2022-09-05T23:36:19.624Z,3.13
2022-09-05T23:38:47.964Z,3.83
2022-09-05T23:41:17.287Z,3.83
2022-09-05T23:43:45.774Z,4.63
2022-09-05T23:46:15.583Z,3.55
2022-09-05T23:48:43.977Z,3.75
2022-09-05T23:51:14.510Z,3.42
2022-09-05T23:53:43.306Z,3.63
2022-09-05T23:56:12.612Z,4.65
2022-09-05T23:58:43.372Z,3.55
